createdAt,value
2018-10-12T00:00:47.500Z,21.15
2018-10-12T00:03:15.188Z,21.16
2018-10-12T00:05:43.184Z,21.19
2018-10-12T00:08:10.806Z,21.18
2018-10-12T00:10:38.484Z,21.19
2018-10-12T00:13:06.121Z,21.20
2018-10-12T00:15:33.770Z,21.20
2018-10-12T00:18:01.402Z,21.21
2018-10-12T00:20:29.261Z,21.20
2018-10-12T00:22:56.916Z,21.21
2018-10-12T00:25:24.576Z,21.19
2018-10-12T00:27:52.208Z,21.19
2018-10-12T00:30:19.923Z,21.18
2018-10-12T00:32:47.583Z,21.18
2018-10-12T00:35:15.195Z,21.15
2018-10-12T00:37:43.090Z,21.18
2018-10-12T00:40:10.776Z,21.19
2018-10-12T00:42:38.413Z,21.20
2018-10-12T00:45:06.074Z,21.21
2018-10-12T00:47:33.767Z,21.21
2018-10-12T00:50:01.590Z,21.21
2018-10-12T00:52:29.300Z,21.21
2018-10-12T00:54:57.145Z,21.20
2018-10-12T00:57:24.917Z,21.20
2018-10-12T00:59:52.661Z,21.21
2018-10-12T01:02:20.312Z,21.21
2018-10-12T01:04:47.968Z,21.21
2018-10-12T01:07:15.600Z,21.21
2018-10-12T01:09:43.271Z,21.22
2018-10-12T01:12:47.636Z,21.22
2018-10-12T01:15:15.333Z,21.22
2018-10-12T01:17:42.957Z,21.22
2018-10-12T01:20:10.692Z,21.19
2018-10-12T01:22:38.376Z,21.20
2018-10-12T01:25:06.839Z,21.18
2018-10-12T01:27:34.550Z,21.15
2018-10-12T01:30:02.998Z,21.14
2018-10-12T01:32:36.235Z,21.14
2018-10-12T01:35:03.872Z,21.13
2018-10-12T01:37:31.455Z,21.11
2018-10-12T01:39:59.068Z,21.09
2018-10-12T01:42:26.664Z,21.10
2018-10-12T01:44:54.295Z,21.09
2018-10-12T01:47:21.967Z,21.09
2018-10-12T01:49:49.647Z,21.08
2018-10-12T01:52:17.279Z,21.08
2018-10-12T01:54:44.892Z,21.06
2018-10-12T01:57:13.051Z,21.06
2018-10-12T01:59:40.665Z,21.07
2018-10-12T02:02:08.321Z,21.06
2018-10-12T02:04:35.921Z,21.06
2018-10-12T02:07:04.227Z,21.04
2018-10-12T02:09:31.820Z,21.03
2018-10-12T02:11:59.574Z,21.03
2018-10-12T02:14:27.686Z,21.06
2018-10-12T02:16:55.295Z,21.05
2018-10-12T02:19:22.989Z,21.05
2018-10-12T02:21:50.620Z,21.04
2018-10-12T02:24:18.210Z,21.02
2018-10-12T02:26:45.818Z,21.02
2018-10-12T02:29:13.471Z,21.02
2018-10-12T02:31:41.607Z,21.01
2018-10-12T02:34:09.252Z,21.00
2018-10-12T02:36:37.268Z,21.00
2018-10-12T02:39:07.805Z,20.98
2018-10-12T02:41:35.435Z,20.99
2018-10-12T02:44:03.113Z,21.00
2018-10-12T02:46:30.739Z,21.00
2018-10-12T02:48:58.380Z,21.01
2018-10-12T02:51:26.032Z,20.99
2018-10-12T02:53:53.679Z,20.98
2018-10-12T02:56:22.546Z,20.97
2018-10-12T02:58:51.203Z,20.96
2018-10-12T03:01:19.570Z,20.96
2018-10-12T03:03:47.200Z,20.94
2018-10-12T03:06:15.242Z,20.95
2018-10-12T03:08:42.882Z,20.97
2018-10-12T03:11:10.615Z,20.98
2018-10-12T03:13:38.583Z,20.98
2018-10-12T03:16:06.277Z,20.98
2018-10-12T03:18:34.015Z,20.98
2018-10-12T03:21:01.643Z,20.98
2018-10-12T03:23:29.394Z,20.96
2018-10-12T03:25:57.096Z,20.93
2018-10-12T03:28:32.963Z,20.93
2018-10-12T03:31:01.232Z,20.90
2018-10-12T03:33:29.319Z,20.92
2018-10-12T03:35:57.537Z,20.91
2018-10-12T03:38:25.126Z,20.91
2018-10-12T03:40:52.696Z,20.88
2018-10-12T03:43:20.319Z,20.90
2018-10-12T03:45:47.962Z,20.88
2018-10-12T03:48:15.564Z,20.88
2018-10-12T03:50:43.233Z,20.88
2018-10-12T03:53:11.434Z,20.88
2018-10-12T03:55:39.383Z,20.88
2018-10-12T03:58:07.290Z,20.89
2018-10-12T04:00:34.935Z,20.90
2018-10-12T04:03:02.591Z,20.90
2018-10-12T04:05:30.224Z,20.87
2018-10-12T04:07:57.871Z,20.85
2018-10-12T04:10:25.632Z,20.83
2018-10-12T04:12:53.493Z,20.85
2018-10-12T04:15:21.115Z,20.84
2018-10-12T04:17:48.834Z,20.85
2018-10-12T04:20:16.409Z,20.86
2018-10-12T04:22:44.042Z,20.88
2018-10-12T04:25:11.685Z,20.89
2018-10-12T04:27:39.283Z,20.89
2018-10-12T04:30:07.124Z,20.87
2018-10-12T04:32:34.792Z,20.88
2018-10-12T04:35:02.419Z,20.85
2018-10-12T04:37:29.996Z,20.84
2018-10-12T04:40:04.607Z,20.85
2018-10-12T04:42:32.282Z,20.88
2018-10-12T04:45:00.409Z,20.89
2018-10-12T04:47:30.194Z,20.87
2018-10-12T04:49:59.312Z,20.86
2018-10-12T04:52:28.490Z,20.83
2018-10-12T04:54:56.331Z,20.80
2018-10-12T04:57:23.983Z,20.77
2018-10-12T04:59:51.659Z,20.74
2018-10-12T05:02:19.578Z,20.69
2018-10-12T05:04:47.215Z,20.66
2018-10-12T05:07:14.877Z,20.65
2018-10-12T05:09:42.504Z,20.64
2018-10-12T05:12:10.175Z,20.63
2018-10-12T05:14:37.835Z,20.62
2018-10-12T05:17:05.568Z,20.61
2018-10-12T05:19:33.192Z,20.62
2018-10-12T05:22:00.877Z,20.66
2018-10-12T05:24:28.614Z,20.67
2018-10-12T05:26:56.232Z,20.70
2018-10-12T05:29:23.987Z,20.69
2018-10-12T05:31:51.628Z,20.72
2018-10-12T05:34:19.309Z,20.74
2018-10-12T05:36:46.984Z,20.77
2018-10-12T05:39:15.136Z,20.77
2018-10-12T05:41:42.982Z,20.77
2018-10-12T05:44:10.635Z,20.78
2018-10-12T05:46:38.530Z,20.77
2018-10-12T05:49:17.508Z,20.77
2018-10-12T05:51:45.172Z,20.82
2018-10-12T05:54:13.232Z,20.81
2018-10-12T05:56:41.731Z,20.81
2018-10-12T05:59:09.358Z,20.81
2018-10-12T06:01:37.058Z,20.83
2018-10-12T06:04:05.283Z,20.85
2018-10-12T06:06:32.919Z,20.84
2018-10-12T06:09:00.539Z,20.83
2018-10-12T06:11:28.263Z,20.84
2018-10-12T06:13:55.869Z,20.85
2018-10-12T06:16:23.595Z,20.87
2018-10-12T06:18:51.273Z,20.87
2018-10-12T06:21:18.832Z,20.87
2018-10-12T06:23:46.443Z,20.84
2018-10-12T06:26:14.610Z,20.83
2018-10-12T06:28:42.344Z,20.82
2018-10-12T06:31:10.643Z,20.80
2018-10-12T06:33:38.298Z,20.78
2018-10-12T06:36:06.017Z,20.77
2018-10-12T06:38:33.765Z,20.78
2018-10-12T06:41:01.553Z,20.77
2018-10-12T06:43:29.091Z,20.77
2018-10-12T06:45:56.743Z,20.75
2018-10-12T06:48:24.425Z,20.77
2018-10-12T06:50:52.090Z,20.77
2018-10-12T06:53:19.732Z,20.77
2018-10-12T06:55:47.357Z,20.76
2018-10-12T06:58:14.980Z,20.76
2018-10-12T07:00:42.781Z,20.76
2018-10-12T07:03:10.388Z,20.75
2018-10-12T07:05:38.120Z,20.74
2018-10-12T07:08:05.832Z,20.79
2018-10-12T07:10:33.556Z,20.80
2018-10-12T07:13:01.286Z,20.82
2018-10-12T07:15:28.845Z,20.81
2018-10-12T07:17:56.573Z,20.81
2018-10-12T07:20:24.254Z,20.81
2018-10-12T07:22:51.867Z,20.80
2018-10-12T07:25:19.544Z,20.80
2018-10-12T07:27:47.591Z,20.80
2018-10-12T07:30:15.198Z,20.83
2018-10-12T07:32:42.846Z,20.84
2018-10-12T07:35:10.528Z,20.84
2018-10-12T07:37:39.006Z,20.86
2018-10-12T07:40:08.707Z,20.87
2018-10-12T07:42:36.395Z,20.88
2018-10-12T07:45:04.020Z,20.88
2018-10-12T07:47:31.847Z,20.92
2018-10-12T07:49:59.503Z,20.92
2018-10-12T07:52:27.106Z,20.93
2018-10-12T07:54:54.785Z,20.95
2018-10-12T07:57:26.874Z,20.98
2018-10-12T07:59:54.524Z,20.99
2018-10-12T08:02:22.219Z,21.01
2018-10-12T08:04:49.906Z,21.03
2018-10-12T08:07:17.533Z,21.03
2018-10-12T08:09:46.143Z,21.06
2018-10-12T08:12:13.784Z,21.04
2018-10-12T08:14:54.739Z,21.07
2018-10-12T08:17:22.841Z,21.08
2018-10-12T08:19:50.889Z,21.09
2018-10-12T08:22:18.573Z,21.10
2018-10-12T08:24:46.213Z,21.13
2018-10-12T08:27:13.889Z,21.17
2018-10-12T08:29:41.552Z,21.18
2018-10-12T08:32:09.352Z,21.18
2018-10-12T08:34:37.029Z,21.19
2018-10-12T08:37:04.675Z,21.21
2018-10-12T08:39:32.380Z,21.21
2018-10-12T08:42:00.014Z,21.23
2018-10-12T08:44:27.830Z,21.26
2018-10-12T08:46:55.441Z,21.27
2018-10-12T08:49:23.029Z,21.29
2018-10-12T08:51:50.624Z,21.32
2018-10-12T08:54:18.212Z,21.33
2018-10-12T08:56:45.920Z,21.35
2018-10-12T08:59:13.572Z,21.35
2018-10-12T09:01:41.241Z,21.36
2018-10-12T09:04:08.881Z,21.37
2018-10-12T09:06:36.577Z,21.40
2018-10-12T09:09:07.140Z,21.41
2018-10-12T09:11:34.771Z,21.42
2018-10-12T09:14:02.472Z,21.43
2018-10-12T09:16:30.178Z,21.43
2018-10-12T09:18:57.781Z,21.46
2018-10-12T09:21:25.429Z,21.46
2018-10-12T09:23:53.051Z,21.48
2018-10-12T09:26:20.645Z,21.48
2018-10-12T09:28:48.363Z,21.50
2018-10-12T09:31:15.999Z,21.53
2018-10-12T09:33:43.583Z,21.53
2018-10-12T09:36:11.250Z,21.53
2018-10-12T09:38:38.845Z,21.55
2018-10-12T09:41:06.480Z,21.56
2018-10-12T09:43:34.111Z,21.57
2018-10-12T09:46:01.765Z,21.59
2018-10-12T09:48:29.388Z,21.61
2018-10-12T09:50:57.039Z,21.61
2018-10-12T09:53:24.724Z,21.64
2018-10-12T09:55:52.365Z,21.66
2018-10-12T09:58:20.079Z,21.66
2018-10-12T10:00:53.322Z,21.68
2018-10-12T10:05:28.582Z,21.69
2018-10-12T10:07:56.297Z,21.71
2018-10-12T10:10:23.923Z,21.72
2018-10-12T10:12:51.449Z,21.75
2018-10-12T10:15:19.172Z,21.76
2018-10-12T10:17:46.797Z,21.78
2018-10-12T10:20:14.453Z,21.79
2018-10-12T10:22:42.176Z,21.80
2018-10-12T10:25:09.914Z,21.84
2018-10-12T10:27:37.480Z,21.85
2018-10-12T10:30:05.345Z,21.87
2018-10-12T10:32:32.830Z,21.86
2018-10-12T10:35:00.442Z,21.88
2018-10-12T10:37:28.144Z,21.89
2018-10-12T10:39:55.725Z,21.91
2018-10-12T10:42:23.341Z,21.92
2018-10-12T10:44:51.054Z,21.93
2018-10-12T10:47:18.624Z,21.95
2018-10-12T10:49:46.248Z,21.96
2018-10-12T10:52:13.905Z,21.99
2018-10-12T10:54:41.602Z,22.00
2018-10-12T10:57:09.251Z,22.02
2018-10-12T10:59:36.831Z,22.02
2018-10-12T11:02:04.514Z,22.04
2018-10-12T11:04:32.744Z,22.06
2018-10-12T11:07:01.406Z,22.08
2018-10-12T11:09:29.122Z,22.09
2018-10-12T11:11:56.843Z,22.11
2018-10-12T11:14:24.511Z,22.13
2018-10-12T11:16:52.213Z,22.15
2018-10-12T11:19:19.961Z,22.16
2018-10-12T11:21:47.688Z,22.18
2018-10-12T11:24:15.321Z,22.19
2018-10-12T11:26:42.996Z,22.20
2018-10-12T11:29:10.664Z,22.20
2018-10-12T11:31:38.248Z,22.23
2018-10-12T11:34:06.068Z,22.24
2018-10-12T11:36:33.716Z,22.24
2018-10-12T11:39:01.356Z,22.25
2018-10-12T11:41:29.032Z,22.27
2018-10-12T11:43:56.587Z,22.29
2018-10-12T11:46:24.185Z,22.31
2018-10-12T11:48:51.826Z,22.34
2018-10-12T11:51:19.437Z,22.35
2018-10-12T11:53:47.084Z,22.38
2018-10-12T11:56:14.761Z,22.39
2018-10-12T11:58:42.345Z,22.39
2018-10-12T12:01:10.072Z,22.40
2018-10-12T12:03:37.637Z,22.39
2018-10-12T12:06:05.238Z,22.39
2018-10-12T12:08:32.929Z,22.42
2018-10-12T12:11:00.553Z,22.46
2018-10-12T12:13:28.193Z,22.51
2018-10-12T12:15:55.890Z,22.55
2018-10-12T12:18:23.580Z,22.54
2018-10-12T12:20:51.218Z,22.54
2018-10-12T12:23:18.824Z,22.53
2018-10-12T12:25:46.468Z,22.54
2018-10-12T12:28:14.201Z,22.53
2018-10-12T12:30:41.797Z,22.52
2018-10-12T12:33:09.597Z,22.52
2018-10-12T12:35:37.634Z,22.52
2018-10-12T12:38:05.127Z,22.54
2018-10-12T12:40:32.682Z,22.58
2018-10-12T12:43:00.282Z,22.60
